sensor_id;sensor_type;location;lat;lon;timestamp;temperature;humidity
36552;DHT22;22559;54.176;12.102;2023-10-09T00:00:16;9.20;99.90
36552;DHT22;22559;54.176;12.102;2023-10-09T00:03:19;9.10;99.90
36552;DHT22;22559;54.176;12.102;2023-10-09T00:05:48;9.00;99.90
36552;DHT22;22559;54.176;12.102;2023-10-09T00:08:16;9.00;99.90
36552;DHT22;22559;54.176;12.102;2023-10-09T00:10:51;8.90;99.90
36552;DHT22;22559;54.176;12.102;2023-10-09T00:13:23;8.70;99.90
36552;DHT22;22559;54.176;12.102;2023-10-09T00:15:57;8.70;99.90
36552;DHT22;22559;54.176;12.102;2023-10-09T00:18:27;8.70;99.90
36552;DHT22;22559;54.176;12.102;2023-10-09T00:20:58;8.70;99.90
36552;DHT22;22559;54.176;12.102;2023-10-09T00:23:37;8.70;99.90
36552;DHT22;22559;54.176;12.102;2023-10-09T00:26:03;8.70;99.90
36552;DHT22;22559;54.176;12.102;2023-10-09T00:28:41;8.80;99.90
36552;DHT22;22559;54.176;12.102;2023-10-09T00:31:12;8.70;99.90
36552;DHT22;22559;54.176;12.102;2023-10-09T00:33:42;8.80;99.90
36552;DHT22;22559;54.176;12.102;2023-10-09T00:36:08;8.80;99.90
36552;DHT22;22559;54.176;12.102;2023-10-09T00:38:35;8.80;99.90
36552;DHT22;22559;54.176;12.102;2023-10-09T00:41:01;8.80;99.90
36552;DHT22;22559;54.176;12.102;2023-10-09T00:43:33;8.80;99.90
36552;DHT22;22559;54.176;12.102;2023-10-09T00:46:02;8.80;99.90
36552;DHT22;22559;54.176;12.102;2023-10-09T00:48:28;8.80;99.90
36552;DHT22;22559;54.176;12.102;2023-10-09T00:51:03;8.80;99.90
36552;DHT22;22559;54.176;12.102;2023-10-09T00:53:45;8.80;99.90
36552;DHT22;22559;54.176;12.102;2023-10-09T00:56:18;8.80;99.90
36552;DHT22;22559;54.176;12.102;2023-10-09T00:58:49;8.90;99.90
36552;DHT22;22559;54.176;12.102;2023-10-09T01:01:21;8.80;99.90
36552;DHT22;22559;54.176;12.102;2023-10-09T01:03:52;8.80;99.90
36552;DHT22;22559;54.176;12.102;2023-10-09T01:06:18;8.80;99.90
36552;DHT22;22559;54.176;12.102;2023-10-09T01:08:47;8.80;99.90
36552;DHT22;22559;54.176;12.102;2023-10-09T01:11:34;8.80;99.90
36552;DHT22;22559;54.176;12.102;2023-10-09T01:14:00;8.70;99.90
36552;DHT22;22559;54.176;12.102;2023-10-09T01:16:37;8.60;99.90
36552;DHT22;22559;54.176;12.102;2023-10-09T01:19:03;8.50;99.90
36552;DHT22;22559;54.176;12.102;2023-10-09T01:21:39;8.50;99.90
36552;DHT22;22559;54.176;12.102;2023-10-09T01:24:07;8.50;99.90
36552;DHT22;22559;54.176;12.102;2023-10-09T01:26:38;8.40;99.90
36552;DHT22;22559;54.176;12.102;2023-10-09T01:29:13;8.30;99.90
36552;DHT22;22559;54.176;12.102;2023-10-09T01:31:44;8.20;99.90
36552;DHT22;22559;54.176;12.102;2023-10-09T01:34:23;8.20;99.90
36552;DHT22;22559;54.176;12.102;2023-10-09T01:37:17;8.20;99.90
36552;DHT22;22559;54.176;12.102;2023-10-09T01:39:55;8.20;99.90
36552;DHT22;22559;54.176;12.102;2023-10-09T01:42:23;8.10;99.90
36552;DHT22;22559;54.176;12.102;2023-10-09T01:44:56;8.10;99.90
36552;DHT22;22559;54.176;12.102;2023-10-09T01:47:23;8.20;99.90
36552;DHT22;22559;54.176;12.102;2023-10-09T01:49:51;8.20;99.90
36552;DHT22;22559;54.176;12.102;2023-10-09T01:52:19;8.20;99.90
36552;DHT22;22559;54.176;12.102;2023-10-09T01:54:47;8.30;99.90
36552;DHT22;22559;54.176;12.102;2023-10-09T01:57:15;8.30;99.90
36552;DHT22;22559;54.176;12.102;2023-10-09T01:59:43;8.30;99.90
36552;DHT22;22559;54.176;12.102;2023-10-09T02:02:12;8.30;99.90
36552;DHT22;22559;54.176;12.102;2023-10-09T02:05:04;8.30;99.90
36552;DHT22;22559;54.176;12.102;2023-10-09T02:07:36;8.30;99.90
36552;DHT22;22559;54.176;12.102;2023-10-09T02:10:19;8.30;99.90
36552;DHT22;22559;54.176;12.102;2023-10-09T02:13:02;8.30;99.90
36552;DHT22;22559;54.176;12.102;2023-10-09T02:15:38;8.30;99.90
36552;DHT22;22559;54.176;12.102;2023-10-09T02:18:07;8.20;99.90
36552;DHT22;22559;54.176;12.102;2023-10-09T02:21:06;8.20;99.90
36552;DHT22;22559;54.176;12.102;2023-10-09T02:23:33;8.20;99.90
36552;DHT22;22559;54.176;12.102;2023-10-09T02:26:07;8.10;99.90
36552;DHT22;22559;54.176;12.102;2023-10-09T02:28:35;8.20;99.90
36552;DHT22;22559;54.176;12.102;2023-10-09T02:31:09;8.20;99.90
36552;DHT22;22559;54.176;12.102;2023-10-09T02:33:38;8.30;99.90
36552;DHT22;22559;54.176;12.102;2023-10-09T02:36:07;8.30;99.90
36552;DHT22;22559;54.176;12.102;2023-10-09T02:38:35;8.20;99.90
36552;DHT22;22559;54.176;12.102;2023-10-09T02:41:06;8.30;99.90
36552;DHT22;22559;54.176;12.102;2023-10-09T02:43:34;8.30;99.90
36552;DHT22;22559;54.176;12.102;2023-10-09T02:46:21;8.40;99.90
36552;DHT22;22559;54.176;12.102;2023-10-09T02:48:55;8.40;99.90
36552;DHT22;22559;54.176;12.102;2023-10-09T02:51:24;8.40;99.90
36552;DHT22;22559;54.176;12.102;2023-10-09T02:53:58;8.50;99.90
36552;DHT22;22559;54.176;12.102;2023-10-09T02:56:24;8.50;99.90
36552;DHT22;22559;54.176;12.102;2023-10-09T02:59:01;8.50;99.90
36552;DHT22;22559;54.176;12.102;2023-10-09T03:01:31;8.50;99.90
36552;DHT22;22559;54.176;12.102;2023-10-09T03:03:57;8.50;99.90
36552;DHT22;22559;54.176;12.102;2023-10-09T03:06:28;8.50;99.90
36552;DHT22;22559;54.176;12.102;2023-10-09T03:08:58;8.60;99.90
36552;DHT22;22559;54.176;12.102;2023-10-09T03:11:24;8.60;99.90
36552;DHT22;22559;54.176;12.102;2023-10-09T03:13:52;8.60;99.90
36552;DHT22;22559;54.176;12.102;2023-10-09T03:16:18;8.70;99.90
36552;DHT22;22559;54.176;12.102;2023-10-09T03:18:51;8.70;99.90
36552;DHT22;22559;54.176;12.102;2023-10-09T03:21:18;8.70;99.90
36552;DHT22;22559;54.176;12.102;2023-10-09T03:23:46;8.80;99.90
36552;DHT22;22559;54.176;12.102;2023-10-09T03:26:16;8.80;99.90
36552;DHT22;22559;54.176;12.102;2023-10-09T03:28:44;8.80;99.90
36552;DHT22;22559;54.176;12.102;2023-10-09T03:31:11;8.90;99.90
36552;DHT22;22559;54.176;12.102;2023-10-09T03:33:38;8.90;99.90
36552;DHT22;22559;54.176;12.102;2023-10-09T03:36:04;8.90;99.90
36552;DHT22;22559;54.176;12.102;2023-10-09T03:38:35;8.80;99.90
36552;DHT22;22559;54.176;12.102;2023-10-09T03:41:02;8.90;99.90
36552;DHT22;22559;54.176;12.102;2023-10-09T03:43:35;8.90;99.90
36552;DHT22;22559;54.176;12.102;2023-10-09T03:46:09;9.00;99.90
36552;DHT22;22559;54.176;12.102;2023-10-09T03:48:51;9.00;99.90
36552;DHT22;22559;54.176;12.102;2023-10-09T03:51:18;9.10;99.90
36552;DHT22;22559;54.176;12.102;2023-10-09T03:53:51;9.00;99.90
36552;DHT22;22559;54.176;12.102;2023-10-09T03:56:18;8.90;99.90
36552;DHT22;22559;54.176;12.102;2023-10-09T03:58:48;8.90;99.90
36552;DHT22;22559;54.176;12.102;2023-10-09T04:01:19;8.80;99.90
36552;DHT22;22559;54.176;12.102;2023-10-09T04:03:58;8.80;99.90
36552;DHT22;22559;54.176;12.102;2023-10-09T04:06:29;8.80;99.90
36552;DHT22;22559;54.176;12.102;2023-10-09T04:09:02;8.80;99.90
36552;DHT22;22559;54.176;12.102;2023-10-09T04:11:47;8.70;99.90
36552;DHT22;22559;54.176;12.102;2023-10-09T04:14:15;8.70;99.90
36552;DHT22;22559;54.176;12.102;2023-10-09T04:16:57;8.70;99.90
36552;DHT22;22559;54.176;12.102;2023-10-09T04:19:51;8.70;99.90
36552;DHT22;22559;54.176;12.102;2023-10-09T04:22:36;8.70;99.90
36552;DHT22;22559;54.176;12.102;2023-10-09T04:25:15;8.70;99.90
36552;DHT22;22559;54.176;12.102;2023-10-09T04:27:42;8.70;99.90
36552;DHT22;22559;54.176;12.102;2023-10-09T04:30:10;8.70;99.90
36552;DHT22;22559;54.176;12.102;2023-10-09T04:32:41;8.70;99.90
36552;DHT22;22559;54.176;12.102;2023-10-09T04:35:10;8.70;99.90
36552;DHT22;22559;54.176;12.102;2023-10-09T04:37:45;8.70;99.90
36552;DHT22;22559;54.176;12.102;2023-10-09T04:40:18;8.70;99.90
36552;DHT22;22559;54.176;12.102;2023-10-09T04:43:03;8.70;99.90
36552;DHT22;22559;54.176;12.102;2023-10-09T04:45:41;8.70;99.90
36552;DHT22;22559;54.176;12.102;2023-10-09T04:48:12;8.70;99.90
36552;DHT22;22559;54.176;12.102;2023-10-09T04:51:00;8.70;99.90
36552;DHT22;22559;54.176;12.102;2023-10-09T04:53:45;8.70;99.90
36552;DHT22;22559;54.176;12.102;2023-10-09T04:56:13;8.70;99.90
36552;DHT22;22559;54.176;12.102;2023-10-09T04:58:41;8.80;99.90
36552;DHT22;22559;54.176;12.102;2023-10-09T05:01:07;8.80;99.90
36552;DHT22;22559;54.176;12.102;2023-10-09T05:03:40;8.80;99.90
36552;DHT22;22559;54.176;12.102;2023-10-09T05:06:06;8.80;99.90
36552;DHT22;22559;54.176;12.102;2023-10-09T05:08:50;8.80;99.90
36552;DHT22;22559;54.176;12.102;2023-10-09T05:11:22;8.90;99.90
36552;DHT22;22559;54.176;12.102;2023-10-09T05:14:11;8.90;99.90
36552;DHT22;22559;54.176;12.102;2023-10-09T05:16:38;8.90;99.90
36552;DHT22;22559;54.176;12.102;2023-10-09T05:19:09;8.90;99.90
36552;DHT22;22559;54.176;12.102;2023-10-09T05:21:54;9.00;99.90
36552;DHT22;22559;54.176;12.102;2023-10-09T05:24:24;9.00;99.90
36552;DHT22;22559;54.176;12.102;2023-10-09T05:26:52;9.00;99.90
36552;DHT22;22559;54.176;12.102;2023-10-09T05:29:20;9.00;99.90
36552;DHT22;22559;54.176;12.102;2023-10-09T05:32:01;9.00;99.90
36552;DHT22;22559;54.176;12.102;2023-10-09T05:34:41;8.90;99.90
36552;DHT22;22559;54.176;12.102;2023-10-09T05:37:27;8.90;99.90
36552;DHT22;22559;54.176;12.102;2023-10-09T05:40:06;8.90;99.90
36552;DHT22;22559;54.176;12.102;2023-10-09T05:42:41;9.00;99.90
36552;DHT22;22559;54.176;12.102;2023-10-09T05:45:11;9.00;99.90
36552;DHT22;22559;54.176;12.102;2023-10-09T05:50:31;9.00;99.90
36552;DHT22;22559;54.176;12.102;2023-10-09T05:53:01;9.10;99.90
36552;DHT22;22559;54.176;12.102;2023-10-09T05:55:28;9.10;99.90
36552;DHT22;22559;54.176;12.102;2023-10-09T05:58:12;9.10;99.90
36552;DHT22;22559;54.176;12.102;2023-10-09T06:00:57;9.10;99.90
36552;DHT22;22559;54.176;12.102;2023-10-09T06:03:41;9.00;99.90
36552;DHT22;22559;54.176;12.102;2023-10-09T06:06:29;9.00;99.90
36552;DHT22;22559;54.176;12.102;2023-10-09T06:09:05;9.00;99.90
36552;DHT22;22559;54.176;12.102;2023-10-09T06:11:44;9.00;99.90
36552;DHT22;22559;54.176;12.102;2023-10-09T06:14:20;9.00;99.90
36552;DHT22;22559;54.176;12.102;2023-10-09T06:16:56;9.00;99.90
36552;DHT22;22559;54.176;12.102;2023-10-09T06:19:21;9.00;99.90
36552;DHT22;22559;54.176;12.102;2023-10-09T06:21:47;9.00;99.90
36552;DHT22;22559;54.176;12.102;2023-10-09T06:24:19;9.10;99.90
36552;DHT22;22559;54.176;12.102;2023-10-09T06:26:46;9.10;99.90
36552;DHT22;22559;54.176;12.102;2023-10-09T06:29:42;9.10;99.90
36552;DHT22;22559;54.176;12.102;2023-10-09T06:32:13;9.10;99.90
36552;DHT22;22559;54.176;12.102;2023-10-09T06:35:01;9.10;99.90
36552;DHT22;22559;54.176;12.102;2023-10-09T06:37:48;9.10;99.90
36552;DHT22;22559;54.176;12.102;2023-10-09T06:40:37;9.10;99.90
36552;DHT22;22559;54.176;12.102;2023-10-09T06:43:23;9.20;99.90
36552;DHT22;22559;54.176;12.102;2023-10-09T06:45:58;9.20;99.90
36552;DHT22;22559;54.176;12.102;2023-10-09T06:48:44;9.30;99.90
36552;DHT22;22559;54.176;12.102;2023-10-09T06:51:21;9.30;99.90
36552;DHT22;22559;54.176;12.102;2023-10-09T06:53:54;9.40;99.90
36552;DHT22;22559;54.176;12.102;2023-10-09T06:56:24;9.50;99.90
36552;DHT22;22559;54.176;12.102;2023-10-09T07:01:39;9.60;99.90
36552;DHT22;22559;54.176;12.102;2023-10-09T07:04:05;9.60;99.90
36552;DHT22;22559;54.176;12.102;2023-10-09T07:06:49;9.70;99.90
36552;DHT22;22559;54.176;12.102;2023-10-09T07:09:17;9.70;99.90
36552;DHT22;22559;54.176;12.102;2023-10-09T07:11:51;9.70;99.90
36552;DHT22;22559;54.176;12.102;2023-10-09T07:14:21;9.70;99.90
36552;DHT22;22559;54.176;12.102;2023-10-09T07:16:57;9.80;99.90
36552;DHT22;22559;54.176;12.102;2023-10-09T07:19:26;9.80;99.90
36552;DHT22;22559;54.176;12.102;2023-10-09T07:22:08;9.90;99.90
36552;DHT22;22559;54.176;12.102;2023-10-09T07:24:51;9.80;99.90
36552;DHT22;22559;54.176;12.102;2023-10-09T07:27:20;9.90;99.90
36552;DHT22;22559;54.176;12.102;2023-10-09T07:30:06;9.90;99.90
36552;DHT22;22559;54.176;12.102;2023-10-09T07:33:03;9.90;99.90
36552;DHT22;22559;54.176;12.102;2023-10-09T07:35:37;10.00;99.90
36552;DHT22;22559;54.176;12.102;2023-10-09T07:38:10;10.00;99.90
36552;DHT22;22559;54.176;12.102;2023-10-09T07:40:37;9.90;99.90
36552;DHT22;22559;54.176;12.102;2023-10-09T07:43:23;9.90;99.90
36552;DHT22;22559;54.176;12.102;2023-10-09T07:45:55;10.00;99.90
36552;DHT22;22559;54.176;12.102;2023-10-09T07:48:24;10.00;99.90
36552;DHT22;22559;54.176;12.102;2023-10-09T07:51:04;10.10;99.90
36552;DHT22;22559;54.176;12.102;2023-10-09T07:53:36;10.10;99.90
36552;DHT22;22559;54.176;12.102;2023-10-09T07:56:12;10.10;99.90
36552;DHT22;22559;54.176;12.102;2023-10-09T07:58:44;10.20;99.90
36552;DHT22;22559;54.176;12.102;2023-10-09T08:01:13;10.30;99.90
36552;DHT22;22559;54.176;12.102;2023-10-09T08:03:48;10.30;99.90
36552;DHT22;22559;54.176;12.102;2023-10-09T08:06:24;10.40;99.90
36552;DHT22;22559;54.176;12.102;2023-10-09T08:09:08;10.50;99.90
36552;DHT22;22559;54.176;12.102;2023-10-09T08:11:37;10.50;99.90
36552;DHT22;22559;54.176;12.102;2023-10-09T08:14:09;10.50;99.90
36552;DHT22;22559;54.176;12.102;2023-10-09T08:16:54;10.50;99.90
36552;DHT22;22559;54.176;12.102;2023-10-09T08:19:48;10.50;99.90
36552;DHT22;22559;54.176;12.102;2023-10-09T08:22:30;10.60;99.90
36552;DHT22;22559;54.176;12.102;2023-10-09T08:24:56;10.70;99.90
36552;DHT22;22559;54.176;12.102;2023-10-09T08:27:23;10.80;99.90
36552;DHT22;22559;54.176;12.102;2023-10-09T08:30:03;10.80;99.90
36552;DHT22;22559;54.176;12.102;2023-10-09T08:32:46;10.80;99.90
36552;DHT22;22559;54.176;12.102;2023-10-09T08:35:33;10.80;99.90
36552;DHT22;22559;54.176;12.102;2023-10-09T08:38:03;10.90;99.90
36552;DHT22;22559;54.176;12.102;2023-10-09T08:40:38;10.90;99.90
36552;DHT22;22559;54.176;12.102;2023-10-09T08:43:14;11.00;99.90
36552;DHT22;22559;54.176;12.102;2023-10-09T08:48:12;11.20;99.90
36552;DHT22;22559;54.176;12.102;2023-10-09T08:50:45;11.30;99.90
36552;DHT22;22559;54.176;12.102;2023-10-09T08:53:11;11.30;99.90
36552;DHT22;22559;54.176;12.102;2023-10-09T08:55:38;11.40;99.90
36552;DHT22;22559;54.176;12.102;2023-10-09T08:58:05;11.40;99.90
36552;DHT22;22559;54.176;12.102;2023-10-09T09:00:51;11.40;99.90
36552;DHT22;22559;54.176;12.102;2023-10-09T09:03:21;11.50;99.90
36552;DHT22;22559;54.176;12.102;2023-10-09T09:06:01;11.60;99.90
36552;DHT22;22559;54.176;12.102;2023-10-09T09:08:28;11.60;99.90
36552;DHT22;22559;54.176;12.102;2023-10-09T09:10:59;11.70;99.90
36552;DHT22;22559;54.176;12.102;2023-10-09T09:13:40;11.80;99.90
36552;DHT22;22559;54.176;12.102;2023-10-09T09:16:20;11.80;99.90
36552;DHT22;22559;54.176;12.102;2023-10-09T09:19:02;11.90;99.90
36552;DHT22;22559;54.176;12.102;2023-10-09T09:21:28;11.90;99.90
36552;DHT22;22559;54.176;12.102;2023-10-09T09:23:58;12.10;99.90
36552;DHT22;22559;54.176;12.102;2023-10-09T09:26:35;12.20;99.90
36552;DHT22;22559;54.176;12.102;2023-10-09T09:29:06;12.30;99.90
36552;DHT22;22559;54.176;12.102;2023-10-09T09:31:35;12.40;99.90
36552;DHT22;22559;54.176;12.102;2023-10-09T09:34:04;12.60;99.90
36552;DHT22;22559;54.176;12.102;2023-10-09T09:36:48;12.90;99.90
36552;DHT22;22559;54.176;12.102;2023-10-09T09:39:14;13.20;99.90
36552;DHT22;22559;54.176;12.102;2023-10-09T09:41:45;13.60;99.90
36552;DHT22;22559;54.176;12.102;2023-10-09T09:44:11;14.10;99.90
36552;DHT22;22559;54.176;12.102;2023-10-09T09:46:43;14.50;99.90
36552;DHT22;22559;54.176;12.102;2023-10-09T09:49:10;14.70;99.90
36552;DHT22;22559;54.176;12.102;2023-10-09T09:51:47;14.80;99.90
36552;DHT22;22559;54.176;12.102;2023-10-09T09:54:14;14.80;99.90
36552;DHT22;22559;54.176;12.102;2023-10-09T09:56:44;14.80;99.90
36552;DHT22;22559;54.176;12.102;2023-10-09T09:59:17;14.90;99.90
36552;DHT22;22559;54.176;12.102;2023-10-09T10:01:49;15.00;99.90
36552;DHT22;22559;54.176;12.102;2023-10-09T10:04:32;15.10;99.90
36552;DHT22;22559;54.176;12.102;2023-10-09T10:07:05;15.00;99.90
36552;DHT22;22559;54.176;12.102;2023-10-09T10:09:41;14.90;99.90
36552;DHT22;22559;54.176;12.102;2023-10-09T10:12:11;14.70;99.90
36552;DHT22;22559;54.176;12.102;2023-10-09T10:14:56;14.60;99.90
36552;DHT22;22559;54.176;12.102;2023-10-09T10:17:27;14.40;99.90
36552;DHT22;22559;54.176;12.102;2023-10-09T10:22:27;13.90;99.90
36552;DHT22;22559;54.176;12.102;2023-10-09T10:24:53;13.80;99.90
36552;DHT22;22559;54.176;12.102;2023-10-09T10:27:24;13.70;99.90
36552;DHT22;22559;54.176;12.102;2023-10-09T10:35:17;13.30;99.90
36552;DHT22;22559;54.176;12.102;2023-10-09T10:37:46;13.30;99.90
36552;DHT22;22559;54.176;12.102;2023-10-09T10:40:27;13.20;99.90
36552;DHT22;22559;54.176;12.102;2023-10-09T10:43:18;13.30;99.90
36552;DHT22;22559;54.176;12.102;2023-10-09T10:48:43;13.30;99.90
36552;DHT22;22559;54.176;12.102;2023-10-09T10:51:13;13.40;99.90
36552;DHT22;22559;54.176;12.102;2023-10-09T10:53:53;13.40;99.90
36552;DHT22;22559;54.176;12.102;2023-10-09T10:56:24;13.50;99.90
36552;DHT22;22559;54.176;12.102;2023-10-09T10:59:00;13.60;99.90
36552;DHT22;22559;54.176;12.102;2023-10-09T11:01:35;13.70;99.90
36552;DHT22;22559;54.176;12.102;2023-10-09T11:04:27;13.70;99.90
36552;DHT22;22559;54.176;12.102;2023-10-09T11:07:05;13.70;99.90
36552;DHT22;22559;54.176;12.102;2023-10-09T11:09:53;13.80;99.90
36552;DHT22;22559;54.176;12.102;2023-10-09T11:15:31;13.80;99.90
36552;DHT22;22559;54.176;12.102;2023-10-09T11:18:07;13.90;99.90
36552;DHT22;22559;54.176;12.102;2023-10-09T11:20:34;13.90;99.90
36552;DHT22;22559;54.176;12.102;2023-10-09T11:23:02;13.90;99.90
36552;DHT22;22559;54.176;12.102;2023-10-09T11:25:42;13.80;99.90
36552;DHT22;22559;54.176;12.102;2023-10-09T11:28:18;13.90;99.90
36552;DHT22;22559;54.176;12.102;2023-10-09T11:31:05;13.80;99.90
36552;DHT22;22559;54.176;12.102;2023-10-09T11:33:43;13.80;99.90
36552;DHT22;22559;54.176;12.102;2023-10-09T11:36:09;13.70;99.90
36552;DHT22;22559;54.176;12.102;2023-10-09T11:38:38;13.60;99.90
36552;DHT22;22559;54.176;12.102;2023-10-09T11:41:17;13.50;99.90
36552;DHT22;22559;54.176;12.102;2023-10-09T11:43:49;13.50;99.90
36552;DHT22;22559;54.176;12.102;2023-10-09T11:46:21;13.50;99.90
36552;DHT22;22559;54.176;12.102;2023-10-09T11:49:09;13.60;99.90
36552;DHT22;22559;54.176;12.102;2023-10-09T11:51:51;13.50;99.90
36552;DHT22;22559;54.176;12.102;2023-10-09T11:54:35;13.40;99.90
36552;DHT22;22559;54.176;12.102;2023-10-09T11:57:01;13.50;99.90
36552;DHT22;22559;54.176;12.102;2023-10-09T11:59:28;13.50;99.90
36552;DHT22;22559;54.176;12.102;2023-10-09T12:02:00;13.60;99.90
36552;DHT22;22559;54.176;12.102;2023-10-09T12:04:26;13.60;99.90
36552;DHT22;22559;54.176;12.102;2023-10-09T12:06:58;13.50;99.90
36552;DHT22;22559;54.176;12.102;2023-10-09T12:09:34;13.40;99.90
36552;DHT22;22559;54.176;12.102;2023-10-09T12:12:05;13.40;99.90
36552;DHT22;22559;54.176;12.102;2023-10-09T12:14:31;13.40;99.90
36552;DHT22;22559;54.176;12.102;2023-10-09T12:17:09;13.40;99.90
36552;DHT22;22559;54.176;12.102;2023-10-09T12:19:39;13.40;99.90
36552;DHT22;22559;54.176;12.102;2023-10-09T12:22:06;13.40;99.90
36552;DHT22;22559;54.176;12.102;2023-10-09T12:24:36;13.40;99.90
36552;DHT22;22559;54.176;12.102;2023-10-09T12:27:03;13.40;99.90
36552;DHT22;22559;54.176;12.102;2023-10-09T12:29:35;13.40;99.90
36552;DHT22;22559;54.176;12.102;2023-10-09T12:32:01;13.50;99.90
36552;DHT22;22559;54.176;12.102;2023-10-09T12:34:28;13.50;99.90
36552;DHT22;22559;54.176;12.102;2023-10-09T12:36:56;13.50;99.90
36552;DHT22;22559;54.176;12.102;2023-10-09T12:39:22;13.60;99.90
36552;DHT22;22559;54.176;12.102;2023-10-09T12:41:48;13.60;99.90
36552;DHT22;22559;54.176;12.102;2023-10-09T12:44:14;13.60;99.90
36552;DHT22;22559;54.176;12.102;2023-10-09T12:46:44;13.60;99.90
36552;DHT22;22559;54.176;12.102;2023-10-09T12:49:20;13.60;99.90
36552;DHT22;22559;54.176;12.102;2023-10-09T12:51:51;13.60;99.90
36552;DHT22;22559;54.176;12.102;2023-10-09T12:54:18;13.50;99.90
36552;DHT22;22559;54.176;12.102;2023-10-09T12:56:45;13.50;99.90
36552;DHT22;22559;54.176;12.102;2023-10-09T12:59:14;13.50;99.90
36552;DHT22;22559;54.176;12.102;2023-10-09T13:01:43;13.50;99.90
36552;DHT22;22559;54.176;12.102;2023-10-09T13:04:12;13.50;99.90
36552;DHT22;22559;54.176;12.102;2023-10-09T13:06:41;13.50;99.90
36552;DHT22;22559;54.176;12.102;2023-10-09T13:09:15;13.50;99.90
36552;DHT22;22559;54.176;12.102;2023-10-09T13:11:44;13.50;99.90
36552;DHT22;22559;54.176;12.102;2023-10-09T13:14:10;13.50;99.90
36552;DHT22;22559;54.176;12.102;2023-10-09T13:16:45;13.60;99.90
36552;DHT22;22559;54.176;12.102;2023-10-09T13:19:11;13.60;99.90
36552;DHT22;22559;54.176;12.102;2023-10-09T13:21:37;13.60;99.90
36552;DHT22;22559;54.176;12.102;2023-10-09T13:24:06;13.60;99.90
36552;DHT22;22559;54.176;12.102;2023-10-09T13:26:41;13.50;99.90
36552;DHT22;22559;54.176;12.102;2023-10-09T13:29:08;13.40;99.90
36552;DHT22;22559;54.176;12.102;2023-10-09T13:31:35;13.50;99.90
36552;DHT22;22559;54.176;12.102;2023-10-09T13:34:06;13.30;99.90
36552;DHT22;22559;54.176;12.102;2023-10-09T13:36:35;13.20;99.90
36552;DHT22;22559;54.176;12.102;2023-10-09T13:39:06;13.20;99.90
36552;DHT22;22559;54.176;12.102;2023-10-09T13:41:54;13.30;99.90
36552;DHT22;22559;54.176;12.102;2023-10-09T13:44:29;13.30;99.90
36552;DHT22;22559;54.176;12.102;2023-10-09T13:47:00;13.30;99.90
36552;DHT22;22559;54.176;12.102;2023-10-09T13:49:26;13.30;99.90
36552;DHT22;22559;54.176;12.102;2023-10-09T13:51:59;13.30;99.90
36552;DHT22;22559;54.176;12.102;2023-10-09T13:54:26;13.20;99.90
36552;DHT22;22559;54.176;12.102;2023-10-09T13:56:59;13.10;99.90
36552;DHT22;22559;54.176;12.102;2023-10-09T13:59:25;13.10;99.90
36552;DHT22;22559;54.176;12.102;2023-10-09T14:01:54;13.10;99.90
36552;DHT22;22559;54.176;12.102;2023-10-09T14:04:21;13.10;99.90
36552;DHT22;22559;54.176;12.102;2023-10-09T14:06:51;13.00;99.90
36552;DHT22;22559;54.176;12.102;2023-10-09T14:09:23;12.90;99.90
36552;DHT22;22559;54.176;12.102;2023-10-09T14:12:04;12.90;99.90
36552;DHT22;22559;54.176;12.102;2023-10-09T14:14:44;12.90;99.90
36552;DHT22;22559;54.176;12.102;2023-10-09T14:17:13;13.00;99.90
36552;DHT22;22559;54.176;12.102;2023-10-09T14:19:39;12.90;99.90
36552;DHT22;22559;54.176;12.102;2023-10-09T14:22:06;13.00;99.90
36552;DHT22;22559;54.176;12.102;2023-10-09T14:24:33;12.90;99.90
36552;DHT22;22559;54.176;12.102;2023-10-09T14:27:03;12.90;99.90
36552;DHT22;22559;54.176;12.102;2023-10-09T14:29:31;13.00;99.90
36552;DHT22;22559;54.176;12.102;2023-10-09T14:31:58;12.90;99.90
36552;DHT22;22559;54.176;12.102;2023-10-09T14:34:27;12.80;99.90
36552;DHT22;22559;54.176;12.102;2023-10-09T14:37:01;12.80;99.90
36552;DHT22;22559;54.176;12.102;2023-10-09T14:39:27;12.80;99.90
36552;DHT22;22559;54.176;12.102;2023-10-09T14:41:53;12.90;99.90
36552;DHT22;22559;54.176;12.102;2023-10-09T14:44:20;12.80;99.90
36552;DHT22;22559;54.176;12.102;2023-10-09T14:46:46;12.80;99.90
36552;DHT22;22559;54.176;12.102;2023-10-09T14:49:12;12.90;99.90
36552;DHT22;22559;54.176;12.102;2023-10-09T14:51:39;12.90;99.90
36552;DHT22;22559;54.176;12.102;2023-10-09T14:54:05;13.00;99.90
36552;DHT22;22559;54.176;12.102;2023-10-09T14:56:33;13.10;99.90
36552;DHT22;22559;54.176;12.102;2023-10-09T14:59:02;13.10;99.90
36552;DHT22;22559;54.176;12.102;2023-10-09T15:01:31;13.20;99.90
36552;DHT22;22559;54.176;12.102;2023-10-09T15:03:58;13.20;99.90
36552;DHT22;22559;54.176;12.102;2023-10-09T15:06:28;13.10;99.90
36552;DHT22;22559;54.176;12.102;2023-10-09T15:08:58;13.20;99.90
36552;DHT22;22559;54.176;12.102;2023-10-09T15:11:26;13.20;99.90
36552;DHT22;22559;54.176;12.102;2023-10-09T15:13:54;13.20;99.90
36552;DHT22;22559;54.176;12.102;2023-10-09T15:16:21;13.20;99.90
36552;DHT22;22559;54.176;12.102;2023-10-09T15:18:49;13.10;99.90
36552;DHT22;22559;54.176;12.102;2023-10-09T15:21:19;13.10;99.90
36552;DHT22;22559;54.176;12.102;2023-10-09T15:23:49;13.00;99.90
36552;DHT22;22559;54.176;12.102;2023-10-09T15:26:17;13.00;99.90
36552;DHT22;22559;54.176;12.102;2023-10-09T15:28:42;13.00;99.90
36552;DHT22;22559;54.176;12.102;2023-10-09T15:31:08;13.00;99.90
36552;DHT22;22559;54.176;12.102;2023-10-09T15:33:36;12.90;99.90
36552;DHT22;22559;54.176;12.102;2023-10-09T15:36:12;12.90;99.90
36552;DHT22;22559;54.176;12.102;2023-10-09T15:38:39;12.90;99.90
36552;DHT22;22559;54.176;12.102;2023-10-09T15:41:04;12.90;99.90
36552;DHT22;22559;54.176;12.102;2023-10-09T15:43:32;12.90;99.90
36552;DHT22;22559;54.176;12.102;2023-10-09T15:45:59;12.80;99.90
36552;DHT22;22559;54.176;12.102;2023-10-09T15:48:25;12.90;99.90
36552;DHT22;22559;54.176;12.102;2023-10-09T15:50:50;12.80;99.90
36552;DHT22;22559;54.176;12.102;2023-10-09T15:53:17;12.80;99.90
36552;DHT22;22559;54.176;12.102;2023-10-09T15:55:46;12.70;99.90
36552;DHT22;22559;54.176;12.102;2023-10-09T15:58:12;12.60;99.90
36552;DHT22;22559;54.176;12.102;2023-10-09T16:00:38;12.50;99.90
36552;DHT22;22559;54.176;12.102;2023-10-09T16:03:04;12.50;99.90
36552;DHT22;22559;54.176;12.102;2023-10-09T16:05:33;12.50;99.90
36552;DHT22;22559;54.176;12.102;2023-10-09T16:08:01;12.60;99.90
36552;DHT22;22559;54.176;12.102;2023-10-09T16:10:29;12.70;99.90
36552;DHT22;22559;54.176;12.102;2023-10-09T16:12:56;12.60;99.90
36552;DHT22;22559;54.176;12.102;2023-10-09T16:15:23;12.50;99.90
36552;DHT22;22559;54.176;12.102;2023-10-09T16:17:50;12.50;99.90